LNI796 WAMM-WASS
Flight info
| Callsign | LNI796 |
|---|---|
| Flight time | 1h 9m |
| Altitude | 35000 |
| Route | SOSOK W67 FIMBA |
| Aircraft | B738/M-SDE2E3FGHIRWXY/LB1 |
Departure
| Time | 2026-05-06 04:40 |
|---|---|
| Airport | Sam Ratulangi International Airport (WAMM) |
Arrival
| Time | 2026-05-06 05:49 |
|---|---|
| Airport | Domine Eduard Osok Airport (WASS) |
| Time | Latitude | Longitude | Altitude | Speed | Heading |
|---|---|---|---|---|---|
| 2026-05-06 04:03 | 1.54317 | 124.92345 | 336 ft | 0 kts | 309° |
| 2026-05-06 04:29 | 1.54309 | 124.92355 | 333 ft | 4 kts | 309° |
| 2026-05-06 04:29 | 1.54292 | 124.92375 | 331 ft | 4 kts | 309° |
| 2026-05-06 04:29 | 1.54279 | 124.92392 | 331 ft | 4 kts | 309° |
| 2026-05-06 04:29 | 1.54261 | 124.92411 | 331 ft | 4 kts | 330° |
| 2026-05-06 04:30 | 1.54240 | 124.92416 | 333 ft | 4 kts | 2° |
| 2026-05-06 04:30 | 1.54219 | 124.92415 | 337 ft | 0 kts | 2° |
| 2026-05-06 04:32 | 1.54224 | 124.92415 | 334 ft | 2 kts | 3° |
| 2026-05-06 04:32 | 1.54246 | 124.92417 | 337 ft | 6 kts | 4° |
| 2026-05-06 04:33 | 1.54308 | 124.92420 | 332 ft | 11 kts | 1° |
| 2026-05-06 04:33 | 1.54381 | 124.92430 | 332 ft | 11 kts | 24° |
| 2026-05-06 04:33 | 1.54467 | 124.92454 | 336 ft | 16 kts | 4° |
| 2026-05-06 04:33 | 1.54607 | 124.92457 | 335 ft | 23 kts | 1° |
| 2026-05-06 04:34 | 1.54763 | 124.92463 | 334 ft | 22 kts | 2° |
| 2026-05-06 04:34 | 1.54912 | 124.92469 | 336 ft | 22 kts | 2° |
| 2026-05-06 04:34 | 1.55061 | 124.92473 | 335 ft | 23 kts | 1° |
| 2026-05-06 04:34 | 1.55225 | 124.92478 | 336 ft | 23 kts | 2° |
| 2026-05-06 04:35 | 1.55383 | 124.92483 | 335 ft | 22 kts | 2° |
| 2026-05-06 04:35 | 1.55536 | 124.92488 | 334 ft | 17 kts | 2° |
| 2026-05-06 04:35 | 1.55627 | 124.92491 | 336 ft | 10 kts | 3° |
| 2026-05-06 04:35 | 1.55668 | 124.92541 | 336 ft | 11 kts | 86° |
| 2026-05-06 04:36 | 1.55657 | 124.92639 | 332 ft | 17 kts | 124° |
| 2026-05-06 04:36 | 1.55537 | 124.92656 | 334 ft | 22 kts | 182° |
| 2026-05-06 04:36 | 1.55347 | 124.92648 | 337 ft | 30 kts | 181° |
| 2026-05-06 04:36 | 1.55145 | 124.92642 | 334 ft | 28 kts | 181° |
| 2026-05-06 04:37 | 1.54955 | 124.92636 | 337 ft | 26 kts | 182° |
| 2026-05-06 04:37 | 1.54754 | 124.92630 | 332 ft | 33 kts | 182° |
| 2026-05-06 04:37 | 1.54518 | 124.92621 | 337 ft | 34 kts | 182° |
| 2026-05-06 04:37 | 1.54292 | 124.92615 | 335 ft | 31 kts | 181° |
| 2026-05-06 04:38 | 1.54151 | 124.92611 | 336 ft | 30 kts | 181° |
| 2026-05-06 04:38 | 1.53953 | 124.92605 | 334 ft | 27 kts | 182° |
| 2026-05-06 04:38 | 1.53783 | 124.92629 | 332 ft | 11 kts | 162° |
| 2026-05-06 04:38 | 1.53746 | 124.92616 | 336 ft | 7 kts | 246° |
| 2026-05-06 04:39 | 1.53770 | 124.92598 | 336 ft | 4 kts | 357° |
| 2026-05-06 04:39 | 1.53851 | 124.92599 | 334 ft | 36 kts | 2° |
| 2026-05-06 04:39 | 1.54362 | 124.92615 | 337 ft | 109 kts | 2° |
| 2026-05-06 04:39 | 1.55327 | 124.92650 | 353 ft | 166 kts | 2° |
| 2026-05-06 04:40 | 1.56513 | 124.92695 | 975 ft | 173 kts | 2° |
| 2026-05-06 04:40 | 1.58117 | 124.92462 | 1999 ft | 182 kts | 341° |
| 2026-05-06 04:40 | 1.58943 | 124.92184 | 2432 ft | 190 kts | 341° |
| 2026-05-06 04:40 | 1.60249 | 124.91793 | 3085 ft | 203 kts | 344° |
| 2026-05-06 04:41 | 1.61709 | 124.91410 | 3298 ft | 232 kts | 346° |
| 2026-05-06 04:41 | 1.63337 | 124.91033 | 3696 ft | 249 kts | 347° |
| 2026-05-06 04:41 | 1.65125 | 124.90640 | 4095 ft | 270 kts | 347° |
| 2026-05-06 04:41 | 1.66986 | 124.90322 | 4954 ft | 273 kts | 0° |
| 2026-05-06 04:42 | 1.68788 | 124.90768 | 5786 ft | 277 kts | 24° |
| 2026-05-06 04:42 | 1.70532 | 124.91623 | 6620 ft | 281 kts | 26° |
| 2026-05-06 04:42 | 1.72288 | 124.92512 | 7409 ft | 285 kts | 26° |
| 2026-05-06 04:42 | 1.74068 | 124.93414 | 8168 ft | 289 kts | 26° |
| 2026-05-06 04:43 | 1.75873 | 124.94325 | 8926 ft | 292 kts | 26° |
| 2026-05-06 04:43 | 1.77702 | 124.95241 | 9687 ft | 295 kts | 25° |
| 2026-05-06 04:43 | 1.79530 | 124.96153 | 10356 ft | 303 kts | 26° |
| 2026-05-06 04:43 | 1.81484 | 124.97126 | 10528 ft | 326 kts | 26° |
| 2026-05-06 04:44 | 1.83572 | 124.98172 | 10705 ft | 347 kts | 28° |
| 2026-05-06 04:44 | 1.85469 | 124.99731 | 10994 ft | 362 kts | 53° |
| 2026-05-06 04:44 | 1.86570 | 125.01990 | 11575 ft | 367 kts | 76° |
| 2026-05-06 04:44 | 1.86652 | 125.04534 | 12236 ft | 369 kts | 101° |
| 2026-05-06 04:45 | 1.85763 | 125.06929 | 12929 ft | 370 kts | 117° |
| 2026-05-06 04:45 | 1.84552 | 125.09204 | 13548 ft | 373 kts | 118° |
| 2026-05-06 04:45 | 1.83302 | 125.11491 | 14113 ft | 377 kts | 118° |
| 2026-05-06 04:45 | 1.82048 | 125.13805 | 14702 ft | 380 kts | 118° |
| 2026-05-06 04:46 | 1.80803 | 125.16151 | 15249 ft | 384 kts | 118° |
| 2026-05-06 04:46 | 1.79559 | 125.18527 | 15813 ft | 387 kts | 117° |
| 2026-05-06 04:46 | 1.78309 | 125.20919 | 16378 ft | 389 kts | 118° |
| 2026-05-06 04:46 | 1.77021 | 125.23307 | 16915 ft | 392 kts | 119° |
| 2026-05-06 04:47 | 1.75698 | 125.25688 | 17467 ft | 393 kts | 119° |
| 2026-05-06 04:47 | 1.74357 | 125.28080 | 17993 ft | 395 kts | 119° |
| 2026-05-06 04:47 | 1.73007 | 125.30482 | 18475 ft | 398 kts | 119° |
| 2026-05-06 04:47 | 1.71650 | 125.32905 | 18936 ft | 401 kts | 119° |
| 2026-05-06 04:48 | 1.70286 | 125.35347 | 19383 ft | 404 kts | 119° |
| 2026-05-06 04:48 | 1.68912 | 125.37812 | 19818 ft | 407 kts | 119° |
| 2026-05-06 04:48 | 1.67535 | 125.40285 | 20282 ft | 408 kts | 119° |
| 2026-05-06 04:48 | 1.66149 | 125.42777 | 20640 ft | 411 kts | 119° |
| 2026-05-06 04:49 | 1.64756 | 125.45284 | 21025 ft | 414 kts | 119° |
| 2026-05-06 04:49 | 1.63354 | 125.47807 | 21414 ft | 416 kts | 119° |
| 2026-05-06 04:49 | 1.61945 | 125.50341 | 21810 ft | 418 kts | 119° |
| 2026-05-06 04:49 | 1.60529 | 125.52887 | 22156 ft | 421 kts | 119° |
| 2026-05-06 04:50 | 1.59105 | 125.55447 | 22522 ft | 422 kts | 119° |
| 2026-05-06 04:50 | 1.57675 | 125.58016 | 22843 ft | 425 kts | 119° |
| 2026-05-06 04:50 | 1.56238 | 125.60600 | 23187 ft | 426 kts | 119° |
| 2026-05-06 04:50 | 1.54814 | 125.63163 | 23500 ft | 428 kts | 119° |
| 2026-05-06 04:51 | 1.53365 | 125.65769 | 23789 ft | 430 kts | 119° |
| 2026-05-06 04:51 | 1.51909 | 125.68388 | 24087 ft | 432 kts | 119° |
| 2026-05-06 04:51 | 1.50446 | 125.71019 | 24356 ft | 434 kts | 119° |
| 2026-05-06 04:51 | 1.48978 | 125.73657 | 24628 ft | 436 kts | 119° |
| 2026-05-06 04:52 | 1.47501 | 125.76314 | 24895 ft | 438 kts | 119° |
| 2026-05-06 04:52 | 1.46018 | 125.78980 | 25143 ft | 440 kts | 119° |
| 2026-05-06 04:52 | 1.44526 | 125.81663 | 25399 ft | 442 kts | 119° |
| 2026-05-06 04:52 | 1.43030 | 125.84350 | 25672 ft | 444 kts | 119° |
| 2026-05-06 04:53 | 1.41530 | 125.87047 | 25945 ft | 445 kts | 119° |
| 2026-05-06 04:53 | 1.40020 | 125.89761 | 26160 ft | 448 kts | 119° |
| 2026-05-06 04:53 | 1.38505 | 125.92483 | 26377 ft | 450 kts | 119° |
| 2026-05-06 04:53 | 1.36982 | 125.95220 | 26626 ft | 451 kts | 119° |
| 2026-05-06 04:54 | 1.35456 | 125.97962 | 26879 ft | 452 kts | 119° |
| 2026-05-06 04:54 | 1.33925 | 126.00716 | 27090 ft | 453 kts | 118° |
| 2026-05-06 04:54 | 1.32392 | 126.03474 | 27297 ft | 455 kts | 118° |
| 2026-05-06 04:54 | 1.30850 | 126.06244 | 27495 ft | 457 kts | 118° |
| 2026-05-06 04:55 | 1.29300 | 126.09031 | 27678 ft | 460 kts | 118° |
| 2026-05-06 04:55 | 1.27745 | 126.11828 | 27931 ft | 460 kts | 118° |
| 2026-05-06 04:55 | 1.26144 | 126.14598 | 28158 ft | 461 kts | 124° |
| 2026-05-06 04:55 | 1.23979 | 126.16956 | 28303 ft | 465 kts | 141° |
| 2026-05-06 04:56 | 1.21404 | 126.18918 | 28541 ft | 465 kts | 142° |
| 2026-05-06 04:56 | 1.18820 | 126.20863 | 28714 ft | 467 kts | 142° |
| 2026-05-06 04:56 | 1.16226 | 126.22829 | 28869 ft | 469 kts | 142° |
| 2026-05-06 04:56 | 1.13631 | 126.24815 | 29070 ft | 470 kts | 141° |
| 2026-05-06 04:57 | 1.11040 | 126.26815 | 29261 ft | 471 kts | 141° |
| 2026-05-06 04:57 | 1.08445 | 126.28831 | 29422 ft | 473 kts | 141° |
| 2026-05-06 04:57 | 1.05846 | 126.30853 | 29581 ft | 475 kts | 141° |
| 2026-05-06 04:57 | 1.03242 | 126.32882 | 29781 ft | 475 kts | 141° |
| 2026-05-06 04:58 | 1.00638 | 126.34911 | 30097 ft | 473 kts | 141° |
| 2026-05-06 04:58 | 0.98048 | 126.36925 | 30446 ft | 471 kts | 141° |
| 2026-05-06 04:58 | 0.95467 | 126.38932 | 30719 ft | 469 kts | 141° |
| 2026-05-06 04:58 | 0.92891 | 126.40936 | 30919 ft | 470 kts | 141° |
| 2026-05-06 04:59 | 0.90306 | 126.42945 | 31149 ft | 470 kts | 141° |
| 2026-05-06 04:59 | 0.87731 | 126.44949 | 31432 ft | 469 kts | 141° |
| 2026-05-06 04:59 | 0.85166 | 126.46944 | 31700 ft | 467 kts | 141° |
| 2026-05-06 04:59 | 0.82617 | 126.48927 | 32076 ft | 463 kts | 141° |
| 2026-05-06 05:00 | 0.80087 | 126.50898 | 32437 ft | 460 kts | 140° |
| 2026-05-06 05:00 | 0.77873 | 126.53168 | 32767 ft | 456 kts | 124° |
| 2026-05-06 05:00 | 0.76409 | 126.55947 | 33166 ft | 451 kts | 110° |
| 2026-05-06 05:00 | 0.75367 | 126.58887 | 33542 ft | 445 kts | 109° |
| 2026-05-06 05:01 | 0.74406 | 126.61740 | 33879 ft | 434 kts | 108° |
| 2026-05-06 05:01 | 0.73467 | 126.64574 | 34242 ft | 427 kts | 108° |
| 2026-05-06 05:01 | 0.72526 | 126.67392 | 34452 ft | 429 kts | 109° |
| 2026-05-06 05:01 | 0.71569 | 126.70227 | 34589 ft | 432 kts | 109° |
| 2026-05-06 05:02 | 0.70594 | 126.73085 | 34650 ft | 438 kts | 109° |
| 2026-05-06 05:02 | 0.68589 | 126.78895 | 34790 ft | 446 kts | 109° |
| 2026-05-06 05:03 | 0.66542 | 126.84778 | 34891 ft | 452 kts | 109° |
| 2026-05-06 05:03 | 0.64467 | 126.90750 | 34910 ft | 458 kts | 109° |
| 2026-05-06 05:04 | 0.62364 | 126.96801 | 34905 ft | 463 kts | 109° |
| 2026-05-06 05:04 | 0.60248 | 127.02895 | 34899 ft | 465 kts | 109° |
| 2026-05-06 05:05 | 0.58211 | 127.08748 | 34896 ft | 466 kts | 109° |
| 2026-05-06 05:05 | 0.56108 | 127.14797 | 34896 ft | 465 kts | 109° |
| 2026-05-06 05:06 | 0.53987 | 127.20899 | 34897 ft | 464 kts | 109° |
| 2026-05-06 05:06 | 0.51876 | 127.26973 | 34895 ft | 462 kts | 109° |
| 2026-05-06 05:07 | 0.49787 | 127.32984 | 34896 ft | 460 kts | 109° |
| 2026-05-06 05:07 | 0.47692 | 127.39016 | 34894 ft | 459 kts | 109° |
| 2026-05-06 05:08 | 0.45598 | 127.45032 | 34895 ft | 458 kts | 109° |
| 2026-05-06 05:08 | 0.43509 | 127.51044 | 34889 ft | 458 kts | 110° |
| 2026-05-06 05:09 | 0.41423 | 127.57041 | 34889 ft | 457 kts | 109° |
| 2026-05-06 05:09 | 0.39337 | 127.63042 | 34886 ft | 457 kts | 109° |
| 2026-05-06 05:10 | 0.37255 | 127.69044 | 34891 ft | 457 kts | 109° |
| 2026-05-06 05:10 | 0.35164 | 127.75046 | 34890 ft | 458 kts | 109° |
| 2026-05-06 05:11 | 0.33070 | 127.81063 | 34887 ft | 459 kts | 110° |
| 2026-05-06 05:11 | 0.30976 | 127.87083 | 34890 ft | 459 kts | 110° |
| 2026-05-06 05:12 | 0.28882 | 127.93112 | 34889 ft | 459 kts | 110° |
| 2026-05-06 05:12 | 0.26784 | 127.99139 | 34891 ft | 459 kts | 110° |
| 2026-05-06 05:13 | 0.24687 | 128.05172 | 34888 ft | 460 kts | 110° |
| 2026-05-06 05:13 | 0.22599 | 128.11179 | 34891 ft | 461 kts | 110° |
| 2026-05-06 05:14 | 0.20492 | 128.17233 | 34887 ft | 461 kts | 110° |
| 2026-05-06 05:14 | 0.18387 | 128.23288 | 34879 ft | 462 kts | 110° |
| 2026-05-06 05:15 | 0.16277 | 128.29345 | 34875 ft | 461 kts | 110° |
| 2026-05-06 05:15 | 0.14174 | 128.35401 | 34882 ft | 461 kts | 109° |
| 2026-05-06 05:16 | 0.12072 | 128.41451 | 34881 ft | 461 kts | 109° |
| 2026-05-06 05:16 | 0.09967 | 128.47502 | 34876 ft | 461 kts | 110° |
| 2026-05-06 05:17 | 0.07865 | 128.53542 | 34883 ft | 460 kts | 110° |
| 2026-05-06 05:17 | 0.05766 | 128.59577 | 34880 ft | 460 kts | 110° |
| 2026-05-06 05:18 | 0.03666 | 128.65616 | 34878 ft | 460 kts | 110° |
| 2026-05-06 05:18 | 0.01569 | 128.71638 | 34876 ft | 460 kts | 110° |
| 2026-05-06 05:19 | -0.00529 | 128.77672 | 34874 ft | 460 kts | 110° |
| 2026-05-06 05:19 | -0.02625 | 128.83710 | 34868 ft | 460 kts | 110° |
| 2026-05-06 05:20 | -0.04710 | 128.89707 | 34868 ft | 460 kts | 110° |
| 2026-05-06 05:20 | -0.06808 | 128.95735 | 34873 ft | 460 kts | 110° |
| 2026-05-06 05:21 | -0.08905 | 129.01765 | 34875 ft | 460 kts | 110° |
| 2026-05-06 05:21 | -0.11001 | 129.07794 | 34870 ft | 459 kts | 110° |
| 2026-05-06 05:22 | -0.13107 | 129.13848 | 34375 ft | 467 kts | 110° |
| 2026-05-06 05:22 | -0.14176 | 129.16904 | 33793 ft | 465 kts | 111° |
| 2026-05-06 05:22 | -0.15353 | 129.19912 | 33171 ft | 464 kts | 113° |
| 2026-05-06 05:22 | -0.16616 | 129.22860 | 32709 ft | 459 kts | 114° |
| 2026-05-06 05:23 | -0.17901 | 129.25762 | 32234 ft | 455 kts | 114° |
| 2026-05-06 05:23 | -0.19179 | 129.28635 | 31760 ft | 451 kts | 114° |
| 2026-05-06 05:23 | -0.21671 | 129.34323 | 30824 ft | 443 kts | 113° |
| 2026-05-06 05:24 | -0.22888 | 129.37137 | 30360 ft | 439 kts | 113° |
| 2026-05-06 05:24 | -0.24087 | 129.39923 | 29902 ft | 434 kts | 112° |
| 2026-05-06 05:24 | -0.25272 | 129.42684 | 29448 ft | 431 kts | 113° |
| 2026-05-06 05:24 | -0.26453 | 129.45419 | 28981 ft | 427 kts | 113° |
| 2026-05-06 05:25 | -0.27618 | 129.48133 | 28510 ft | 423 kts | 113° |
| 2026-05-06 05:25 | -0.28768 | 129.50822 | 28046 ft | 420 kts | 113° |
| 2026-05-06 05:25 | -0.29913 | 129.53493 | 27587 ft | 416 kts | 113° |
| 2026-05-06 05:25 | -0.31046 | 129.56140 | 27129 ft | 412 kts | 113° |
| 2026-05-06 05:26 | -0.32168 | 129.58759 | 26673 ft | 409 kts | 113° |
| 2026-05-06 05:26 | -0.33283 | 129.61360 | 26222 ft | 405 kts | 113° |
| 2026-05-06 05:26 | -0.34386 | 129.63933 | 25774 ft | 402 kts | 113° |
| 2026-05-06 05:26 | -0.35484 | 129.66490 | 25327 ft | 398 kts | 113° |
| 2026-05-06 05:27 | -0.36570 | 129.69022 | 24887 ft | 395 kts | 113° |
| 2026-05-06 05:27 | -0.37645 | 129.71527 | 24452 ft | 391 kts | 113° |
| 2026-05-06 05:27 | -0.38713 | 129.74016 | 24020 ft | 388 kts | 113° |
| 2026-05-06 05:27 | -0.39773 | 129.76487 | 23582 ft | 385 kts | 113° |
| 2026-05-06 05:28 | -0.40471 | 129.78111 | 23304 ft | 383 kts | 113° |
| 2026-05-06 05:28 | -0.41511 | 129.80539 | 22877 ft | 380 kts | 113° |
| 2026-05-06 05:28 | -0.42510 | 129.82866 | 22471 ft | 377 kts | 113° |
| 2026-05-06 05:28 | -0.43543 | 129.85271 | 22049 ft | 375 kts | 113° |
| 2026-05-06 05:29 | -0.44570 | 129.87658 | 21634 ft | 373 kts | 113° |
| 2026-05-06 05:29 | -0.45588 | 129.90030 | 21216 ft | 370 kts | 113° |
| 2026-05-06 05:29 | -0.46598 | 129.92387 | 20793 ft | 368 kts | 113° |
| 2026-05-06 05:29 | -0.47604 | 129.94733 | 20388 ft | 366 kts | 113° |
| 2026-05-06 05:30 | -0.48590 | 129.97032 | 19985 ft | 363 kts | 113° |
| 2026-05-06 05:30 | -0.49581 | 129.99344 | 19578 ft | 360 kts | 113° |
| 2026-05-06 05:30 | -0.50563 | 130.01635 | 19180 ft | 358 kts | 113° |
| 2026-05-06 05:30 | -0.51542 | 130.03915 | 18783 ft | 356 kts | 113° |
| 2026-05-06 05:31 | -0.52460 | 130.06053 | 18409 ft | 354 kts | 113° |
| 2026-05-06 05:31 | -0.53425 | 130.08303 | 18006 ft | 352 kts | 113° |
| 2026-05-06 05:31 | -0.54361 | 130.10553 | 17625 ft | 350 kts | 111° |
| 2026-05-06 05:31 | -0.55230 | 130.12819 | 17237 ft | 348 kts | 110° |
| 2026-05-06 05:32 | -0.56065 | 130.15061 | 16847 ft | 346 kts | 110° |
| 2026-05-06 05:32 | -0.56899 | 130.17311 | 16467 ft | 344 kts | 110° |
| 2026-05-06 05:32 | -0.57729 | 130.19543 | 16082 ft | 343 kts | 110° |
| 2026-05-06 05:32 | -0.58561 | 130.21768 | 15702 ft | 341 kts | 110° |
| 2026-05-06 05:33 | -0.59391 | 130.23975 | 15325 ft | 339 kts | 110° |
| 2026-05-06 05:33 | -0.60218 | 130.26173 | 14939 ft | 337 kts | 110° |
| 2026-05-06 05:33 | -0.61030 | 130.28326 | 14567 ft | 336 kts | 110° |
| 2026-05-06 05:33 | -0.61851 | 130.30505 | 14195 ft | 334 kts | 110° |
| 2026-05-06 05:34 | -0.62668 | 130.32669 | 13813 ft | 333 kts | 110° |
| 2026-05-06 05:34 | -0.63485 | 130.34828 | 13433 ft | 331 kts | 110° |
| 2026-05-06 05:34 | -0.64294 | 130.36974 | 13066 ft | 329 kts | 110° |
| 2026-05-06 05:34 | -0.65099 | 130.39107 | 12697 ft | 328 kts | 110° |
| 2026-05-06 05:35 | -0.65902 | 130.41235 | 12329 ft | 327 kts | 110° |
| 2026-05-06 05:35 | -0.66703 | 130.43355 | 11955 ft | 325 kts | 110° |
| 2026-05-06 05:35 | -0.67501 | 130.45463 | 11592 ft | 324 kts | 110° |
| 2026-05-06 05:35 | -0.68295 | 130.47561 | 11226 ft | 322 kts | 110° |
| 2026-05-06 05:36 | -0.69084 | 130.49651 | 10859 ft | 321 kts | 110° |
| 2026-05-06 05:36 | -0.69869 | 130.51735 | 10492 ft | 320 kts | 110° |
| 2026-05-06 05:36 | -0.70640 | 130.53780 | 10404 ft | 308 kts | 111° |
| 2026-05-06 05:36 | -0.71387 | 130.55757 | 10285 ft | 301 kts | 111° |
| 2026-05-06 05:37 | -0.72122 | 130.57699 | 10177 ft | 297 kts | 111° |
| 2026-05-06 05:37 | -0.72856 | 130.59643 | 10080 ft | 301 kts | 111° |
| 2026-05-06 05:37 | -0.73593 | 130.61595 | 9859 ft | 308 kts | 111° |
| 2026-05-06 05:37 | -0.74356 | 130.63613 | 9556 ft | 312 kts | 111° |
| 2026-05-06 05:38 | -0.75119 | 130.65635 | 9241 ft | 310 kts | 111° |
| 2026-05-06 05:38 | -0.75877 | 130.67645 | 8921 ft | 309 kts | 111° |
| 2026-05-06 05:38 | -0.76634 | 130.69647 | 8603 ft | 307 kts | 111° |
| 2026-05-06 05:38 | -0.77385 | 130.71638 | 8290 ft | 305 kts | 111° |
| 2026-05-06 05:39 | -0.78133 | 130.73617 | 7985 ft | 303 kts | 111° |
| 2026-05-06 05:39 | -0.78876 | 130.75582 | 7670 ft | 301 kts | 111° |
| 2026-05-06 05:39 | -0.79602 | 130.77507 | 7377 ft | 299 kts | 111° |
| 2026-05-06 05:39 | -0.80334 | 130.79448 | 7072 ft | 297 kts | 111° |
| 2026-05-06 05:40 | -0.81060 | 130.81370 | 6773 ft | 295 kts | 111° |
| 2026-05-06 05:40 | -0.81783 | 130.83286 | 6469 ft | 294 kts | 111° |
| 2026-05-06 05:40 | -0.82502 | 130.85190 | 6180 ft | 292 kts | 111° |
| 2026-05-06 05:40 | -0.83213 | 130.87069 | 5875 ft | 286 kts | 111° |
| 2026-05-06 05:41 | -0.83842 | 130.88924 | 5579 ft | 279 kts | 103° |
| 2026-05-06 05:41 | -0.84158 | 130.90818 | 5299 ft | 273 kts | 98° |
| 2026-05-06 05:41 | -0.84381 | 130.92644 | 5026 ft | 265 kts | 97° |
| 2026-05-06 05:41 | -0.84597 | 130.94419 | 4766 ft | 257 kts | 97° |
| 2026-05-06 05:42 | -0.84816 | 130.96136 | 4561 ft | 249 kts | 98° |
| 2026-05-06 05:42 | -0.85032 | 130.97740 | 4304 ft | 243 kts | 98° |
| 2026-05-06 05:42 | -0.85236 | 130.99198 | 4072 ft | 238 kts | 98° |
| 2026-05-06 05:42 | -0.85457 | 131.00763 | 3943 ft | 226 kts | 98° |
| 2026-05-06 05:43 | -0.85658 | 131.02180 | 3839 ft | 213 kts | 98° |
| 2026-05-06 05:43 | -0.85828 | 131.03378 | 3773 ft | 203 kts | 98° |
| 2026-05-06 05:43 | -0.86024 | 131.04712 | 3676 ft | 202 kts | 101° |
| 2026-05-06 05:43 | -0.86372 | 131.06069 | 3560 ft | 202 kts | 107° |
| 2026-05-06 05:44 | -0.86772 | 131.07410 | 3498 ft | 201 kts | 107° |
| 2026-05-06 05:44 | -0.87170 | 131.08751 | 3478 ft | 201 kts | 107° |
| 2026-05-06 05:44 | -0.87564 | 131.10092 | 3458 ft | 202 kts | 107° |
| 2026-05-06 05:44 | -0.87962 | 131.11457 | 3192 ft | 204 kts | 107° |
| 2026-05-06 05:45 | -0.88333 | 131.12783 | 2923 ft | 193 kts | 103° |
| 2026-05-06 05:45 | -0.88474 | 131.14069 | 2722 ft | 179 kts | 93° |
| 2026-05-06 05:45 | -0.88539 | 131.15276 | 2462 ft | 171 kts | 94° |
| 2026-05-06 05:45 | -0.88610 | 131.16455 | 2261 ft | 166 kts | 94° |
| 2026-05-06 05:46 | -0.88683 | 131.17595 | 2029 ft | 164 kts | 94° |
| 2026-05-06 05:46 | -0.88755 | 131.18714 | 1809 ft | 160 kts | 94° |
| 2026-05-06 05:46 | -0.88826 | 131.19821 | 1606 ft | 160 kts | 94° |
| 2026-05-06 05:46 | -0.88897 | 131.20931 | 1394 ft | 159 kts | 94° |
| 2026-05-06 05:47 | -0.88968 | 131.22033 | 1178 ft | 159 kts | 94° |
| 2026-05-06 05:47 | -0.89038 | 131.23133 | 969 ft | 159 kts | 94° |
| 2026-05-06 05:47 | -0.89110 | 131.24232 | 754 ft | 158 kts | 93° |
| 2026-05-06 05:47 | -0.89168 | 131.25308 | 553 ft | 151 kts | 92° |
| 2026-05-06 05:48 | -0.89215 | 131.26359 | 407 ft | 153 kts | 94° |
| 2026-05-06 05:48 | -0.89310 | 131.27398 | 146 ft | 148 kts | 95° |
| 2026-05-06 05:48 | -0.89378 | 131.28404 | 28 ft | 136 kts | 94° |
| 2026-05-06 05:48 | -0.89425 | 131.29129 | 28 ft | 73 kts | 94° |
| 2026-05-06 05:49 | -0.89432 | 131.29364 | 27 ft | 10 kts | 70° |
| 2026-05-06 05:49 | -0.89432 | 131.29396 | 24 ft | 3 kts | 154° |
| 2026-05-06 05:49 | -0.89443 | 131.29379 | 26 ft | 4 kts | 274° |
| 2026-05-06 05:49 | -0.89438 | 131.29341 | 25 ft | 7 kts | 277° |
| 2026-05-06 05:50 | -0.89433 | 131.29290 | 25 ft | 8 kts | 274° |
| 2026-05-06 05:50 | -0.89429 | 131.29219 | 25 ft | 12 kts | 272° |
| 2026-05-06 05:50 | -0.89396 | 131.29153 | 24 ft | 12 kts | 346° |
| 2026-05-06 05:50 | -0.89313 | 131.29154 | 27 ft | 11 kts | 4° |
| 2026-05-06 05:51 | -0.89249 | 131.29150 | 26 ft | 9 kts | 332° |
| 2026-05-06 05:51 | -0.89225 | 131.29113 | 25 ft | 4 kts | 281° |
| 2026-05-06 05:51 | -0.89222 | 131.29084 | 25 ft | 4 kts | 283° |
| 2026-05-06 05:51 | -0.89198 | 131.29076 | 24 ft | 3 kts | 359° |
| 2026-05-06 05:52 | -0.89183 | 131.29076 | 24 ft | 2 kts | 4° |
| 2026-05-06 05:52 | -0.89174 | 131.29077 | 24 ft | 0 kts | 4° |